Home > Products > Valid Products > TAF

000
FTUS43 KICT 040520
TAFICT
TAF
KICT 040520Z 0406/0506 16008KT P6SM SCT100 BKN200
     FM041200 19011KT P6SM VCTS SCT015 BKN050CB
     FM041400 19012KT 5SM TSRA SCT015 BKN050CB
     FM041700 18010KT P6SM BKN060
     FM050200 16010KT P6SM VCTS BKN060CB=



000
FTUS43 KICT 040520
TAFSLN
TAF
KSLN 040520Z 0406/0506 18009KT P6SM SCT070 BKN120
     FM041200 20011KT P6SM VCTS SCT050 BKN080CB
     FM041700 18012KT P6SM SCT025 BKN080
     FM050200 15012KT P6SM VCTS BKN060CB=



000
FTUS43 KICT 040520
TAFCNU
TAF
KCNU 040520Z 0406/0506 16007KT P6SM SCT100 BKN250
     FM041500 22011KT P6SM SCT040 BKN120
     FM041600 22012KT P6SM VCTS SCT025 BKN050CB
     FM041900 20012KT P6SM BKN060
     FM050200 16010KT P6SM VCTS BKN060CB=



000
FTUS43 KICT 040520
TAFCNU
TAF
KCNU 040520Z 0406/0506 16007KT P6SM SCT100 BKN250
     FM041500 22011KT P6SM SCT040 BKN120
     FM041600 22012KT P6SM VCTS SCT025 BKN050CB
     FM041900 20012KT P6SM BKN060
     FM050200 16010KT P6SM VCTS BKN060CB=



000
FTUS43 KICT 040520
TAFICT
TAF
KICT 040520Z 0406/0506 16008KT P6SM SCT100 BKN200
     FM041200 19011KT P6SM VCTS SCT015 BKN050CB
     FM041400 19012KT 5SM TSRA SCT015 BKN050CB
     FM041700 18010KT P6SM BKN060
     FM050200 16010KT P6SM VCTS BKN060CB=



000
FTUS43 KICT 040520
TAFHUT
TAF
KHUT 040520Z 0406/0506 16008KT P6SM SCT100 BKN200
     FM041100 19011KT P6SM VCTS SCT015 BKN050CB
     FM041400 19011KT 5SM TSRA SCT015 BKN050CB
     FM041700 18010KT P6SM BKN060
     FM050200 16010KT P6SM VCTS BKN060CB=



000
FTUS43 KICT 040520
TAFSLN
TAF
KSLN 040520Z 0406/0506 18009KT P6SM SCT070 BKN120
     FM041200 20011KT P6SM VCTS SCT050 BKN080CB
     FM041700 18012KT P6SM SCT025 BKN080
     FM050200 15012KT P6SM VCTS BKN060CB=



000
FTUS43 KICT 040520
TAFRSL
TAF
KRSL 040520Z 0406/0506 16011KT P6SM SCT070 BKN120
     FM041200 20011KT P6SM VCTS SCT050 BKN080CB
     FM041900 18012KT P6SM SCT025 BKN080
     FM050200 15010KT P6SM VCTS BKN060CB=



000
FTUS43 KICT 040520
TAFRSL
TAF
KRSL 040520Z 0406/0506 16011KT P6SM SCT070 BKN120
     FM041200 20011KT P6SM VCTS SCT050 BKN080CB
     FM041900 18012KT P6SM SCT025 BKN080
     FM050200 15010KT P6SM VCTS BKN060CB=



000
FTUS43 KICT 040520
TAFHUT
TAF
KHUT 040520Z 0406/0506 16008KT P6SM SCT100 BKN200
     FM041100 19011KT P6SM VCTS SCT015 BKN050CB
     FM041400 19011KT 5SM TSRA SCT015 BKN050CB
     FM041700 18010KT P6SM BKN060
     FM050200 16010KT P6SM VCTS BKN060CB=



000
FTUS43 KICT 032332
TAFRSL
TAF
KRSL 032332Z 0400/0424 18011KT P6SM SCT070 BKN120
     FM041200 20011KT P6SM VCTS SCT050 BKN080CB
     FM041800 18012KT P6SM SCT025 BKN080=



000
FTUS43 KICT 032332
TAFICT
TAF
KICT 032332Z 0400/0424 18011KT P6SM SCT060 BKN200
     FM040200 16008KT P6SM SCT100 BKN200
     FM041200 19011KT P6SM VCTS SCT015 BKN050CB
     FM041400 19012KT 5SM TSRA SCT015 BKN050CB
     FM041700 18010KT P6SM BKN060=



000
FTUS43 KICT 032332
TAFSLN
TAF
KSLN 032332Z 0400/0424 18009KT P6SM SCT070 BKN120
     FM041200 20011KT P6SM VCTS SCT050 BKN080CB
     FM041700 18012KT P6SM SCT025 BKN080=



000
FTUS43 KICT 032332
TAFCNU
TAF
KCNU 032332Z 0400/0424 16007KT P6SM SCT100 BKN250
     FM041500 22011KT P6SM SCT040 BKN120
     FM041600 22012KT P6SM VCTS SCT025 BKN050CB=



000
FTUS43 KICT 032332
TAFHUT
TAF
KHUT 032332Z 0400/0424 19011KT P6SM SCT060 BKN200
     FM040300 16008KT P6SM SCT100 BKN200
     FM041100 19011KT P6SM VCTS SCT015 BKN050CB
     FM041400 19011KT 5SM TSRA SCT015 BKN050CB
     FM041700 18010KT P6SM BKN060=



000
FTUS43 KICT 032332
TAFRSL
TAF
KRSL 032332Z 0400/0424 18011KT P6SM SCT070 BKN120
     FM041200 20011KT P6SM VCTS SCT050 BKN080CB
     FM041800 18012KT P6SM SCT025 BKN080=



000
FTUS43 KICT 032332
TAFCNU
TAF
KCNU 032332Z 0400/0424 16007KT P6SM SCT100 BKN250
     FM041500 22011KT P6SM SCT040 BKN120
     FM041600 22012KT P6SM VCTS SCT025 BKN050CB=



000
FTUS43 KICT 032332
TAFHUT
TAF
KHUT 032332Z 0400/0424 19011KT P6SM SCT060 BKN200
     FM040300 16008KT P6SM SCT100 BKN200
     FM041100 19011KT P6SM VCTS SCT015 BKN050CB
     FM041400 19011KT 5SM TSRA SCT015 BKN050CB
     FM041700 18010KT P6SM BKN060=



000
FTUS43 KICT 032332
TAFSLN
TAF
KSLN 032332Z 0400/0424 18009KT P6SM SCT070 BKN120
     FM041200 20011KT P6SM VCTS SCT050 BKN080CB
     FM041700 18012KT P6SM SCT025 BKN080=



000
FTUS43 KICT 032332
TAFICT
TAF
KICT 032332Z 0400/0424 18011KT P6SM SCT060 BKN200
     FM040200 16008KT P6SM SCT100 BKN200
     FM041200 19011KT P6SM VCTS SCT015 BKN050CB
     FM041400 19012KT 5SM TSRA SCT015 BKN050CB
     FM041700 18010KT P6SM BKN060=



000
FTUS43 KICT 031720
TAFSLN
TAF
KSLN 031720Z 0318/0418 VRB06KT P6SM SCT250
     FM032100 18009KT P6SM SCT070 SCT250
     FM041500 20011KT P6SM VCSH SCT050 BKN100=



000
FTUS43 KICT 031720
TAFCNU
TAF
KCNU 031720Z 0318/0418 21010KT P6SM SCT250
     FM040000 16007KT P6SM SCT100 BKN250
     FM041500 22011KT P6SM SCT040 BKN120=



000
FTUS43 KICT 031720
TAFRSL
TAF
KRSL 031720Z 0318/0418 06008KT P6SM SCT250
     FM032100 16011KT P6SM SCT070 SCT250
     FM041200 20011KT P6SM VCSH SCT050 BKN100=



000
FTUS43 KICT 031720
TAFHUT
TAF
KHUT 031720Z 0318/0418 19011KT P6SM FEW060 BKN200
     FM040300 16008KT P6SM FEW060 SCT100 SCT200
     FM041400 19011KT 5SM TSRA SCT015 BKN050CB=



000
FTUS43 KICT 031720
TAFICT
TAF
KICT 031720Z 0318/0418 21011KT P6SM FEW060 BKN200
     FM040100 16008KT P6SM FEW060 SCT100 SCT200
     FM041400 19011KT 5SM TSRA SCT015 BKN050CB=



000
FTUS43 KICT 031122
TAFICT
TAF
KICT 031122Z 0312/0412 17006KT P6SM SCT150
     FM031700 18010KT P6SM FEW050 BKN200
     FM040100 16008KT P6SM BKN100=



000
FTUS43 KICT 031122
TAFRSL
TAF
KRSL 031122Z 0312/0412 VRB04KT P6SM SKC
     FM031800 16009KT P6SM SCT090 BKN250=



000
FTUS43 KICT 031122
TAFSLN
TAF
KSLN 031122Z 0312/0412 VRB04KT P6SM SKC
     FM031800 15007KT P6SM SCT100 BKN250=



000
FTUS43 KICT 031122
TAFHUT
TAF
KHUT 031122Z 0312/0412 17006KT P6SM SCT200
     FM031700 18010KT P6SM FEW050 BKN250
     FM040100 16008KT P6SM BKN100=



000
FTUS43 KICT 031122
TAFCNU
TAF
KCNU 031122Z 0312/0412 19007KT P6SM SCT250
     FM040000 16007KT P6SM SCT100 BKN250=



000
FTUS43 KICT 031122
TAFHUT
TAF
KHUT 031122Z 0312/0412 17006KT P6SM SCT200
     FM031700 18010KT P6SM FEW050 BKN250
     FM040100 16008KT P6SM BKN100=



000
FTUS43 KICT 031122
TAFSLN
TAF
KSLN 031122Z 0312/0412 VRB04KT P6SM SKC
     FM031800 15007KT P6SM SCT100 BKN250=



000
FTUS43 KICT 031122
TAFCNU
TAF
KCNU 031122Z 0312/0412 19007KT P6SM SCT250
     FM040000 16007KT P6SM SCT100 BKN250=



000
FTUS43 KICT 031122
TAFICT
TAF
KICT 031122Z 0312/0412 17006KT P6SM SCT150
     FM031700 18010KT P6SM FEW050 BKN200
     FM040100 16008KT P6SM BKN100=



000
FTUS43 KICT 031122
TAFRSL
TAF
KRSL 031122Z 0312/0412 VRB04KT P6SM SKC
     FM031800 16009KT P6SM SCT090 BKN250=



000
FTUS43 KICT 030520
TAFCNU
TAF
KCNU 030520Z 0306/0406 19007KT P6SM SCT250
     FM031200 20011KT P6SM SCT250=



000
FTUS43 KICT 030520
TAFHUT
TAF
KHUT 030520Z 0306/0406 18006KT P6SM SCT250
     FM031200 20005KT P6SM SCT250
     FM031800 20008KT P6SM SCT050
     FM040100 19012KT P6SM BKN070=



000
FTUS43 KICT 030520
TAFRSL
TAF
KRSL 030520Z 0306/0406 17010KT P6SM SCT070 BKN250
     FM031000 22006KT P6SM SKC
     FM031600 22008KT P6SM BKN250=



000
FTUS43 KICT 030520
TAFSLN
TAF
KSLN 030520Z 0306/0406 17007KT P6SM SCT060 BKN250
     FM031200 19005KT P6SM SCT250
     FM031600 22008KT P6SM BKN250=



000
FTUS43 KICT 030520
TAFICT
TAF
KICT 030520Z 0306/0406 17007KT P6SM BKN250
     FM031200 20006KT P6SM BKN250
     FM031800 20008KT P6SM SCT050
     FM040100 19012KT P6SM BKN070=



000
FTUS43 KICT 030520
TAFRSL
TAF
KRSL 030520Z 0306/0406 17010KT P6SM SCT070 BKN250
     FM031000 22006KT P6SM SKC
     FM031600 22008KT P6SM BKN250=



000
FTUS43 KICT 030520
TAFHUT
TAF
KHUT 030520Z 0306/0406 18006KT P6SM SCT250
     FM031200 20005KT P6SM SCT250
     FM031800 20008KT P6SM SCT050
     FM040100 19012KT P6SM BKN070=



000
FTUS43 KICT 030520
TAFICT
TAF
KICT 030520Z 0306/0406 17007KT P6SM BKN250
     FM031200 20006KT P6SM BKN250
     FM031800 20008KT P6SM SCT050
     FM040100 19012KT P6SM BKN070=



000
FTUS43 KICT 030520
TAFCNU
TAF
KCNU 030520Z 0306/0406 19007KT P6SM SCT250
     FM031200 20011KT P6SM SCT250=



000
FTUS43 KICT 030520
TAFSLN
TAF
KSLN 030520Z 0306/0406 17007KT P6SM SCT060 BKN250
     FM031200 19005KT P6SM SCT250
     FM031600 22008KT P6SM BKN250=



000
FTUS43 KICT 022334
TAFHUT
TAF
KHUT 022334Z 0300/0324 21014G19KT P6SM SCT250
     FM030100 18006KT P6SM SCT250
     FM031200 20005KT P6SM SCT250
     FM031800 20008KT P6SM SCT050=



000
FTUS43 KICT 022334
TAFCNU
TAF
KCNU 022334Z 0300/0324 21010G16KT P6SM SCT050
     FM030200 19007KT P6SM SCT250
     FM031200 20011KT P6SM SCT250=



000
FTUS43 KICT 022334
TAFSLN
TAF
KSLN 022334Z 0300/0324 18010KT P6SM SCT060
     FM030200 17007KT P6SM SCT060 BKN250
     FM031200 19005KT P6SM SCT250
     FM031600 22008KT P6SM BKN250=



000
FTUS43 KICT 022334
TAFRSL
TAF
KRSL 022334Z 0300/0324 19008KT P6SM BKN250
     FM030200 17010KT P6SM SCT070 BKN250
     FM031000 22006KT P6SM SKC
     FM031600 22008KT P6SM BKN250=



000
FTUS43 KICT 022334
TAFICT
TAF
KICT 022334Z 0300/0324 18008KT P6SM SCT250
     FM030200 17007KT P6SM SCT250
     FM031200 20006KT P6SM BKN250
     FM031800 20008KT P6SM SCT050=



000
FTUS43 KICT 022334
TAFHUT
TAF
KHUT 022334Z 0300/0324 21014G19KT P6SM SCT250
     FM030100 18006KT P6SM SCT250
     FM031200 20005KT P6SM SCT250
     FM031800 20008KT P6SM SCT050=



000
FTUS43 KICT 022334
TAFRSL
TAF
KRSL 022334Z 0300/0324 19008KT P6SM BKN250
     FM030200 17010KT P6SM SCT070 BKN250
     FM031000 22006KT P6SM SKC
     FM031600 22008KT P6SM BKN250=



000
FTUS43 KICT 022334
TAFCNU
TAF
KCNU 022334Z 0300/0324 21010G16KT P6SM SCT050
     FM030200 19007KT P6SM SCT250
     FM031200 20011KT P6SM SCT250=



000
FTUS43 KICT 022334
TAFICT
TAF
KICT 022334Z 0300/0324 18008KT P6SM SCT250
     FM030200 17007KT P6SM SCT250
     FM031200 20006KT P6SM BKN250
     FM031800 20008KT P6SM SCT050=



000
FTUS43 KICT 022334
TAFSLN
TAF
KSLN 022334Z 0300/0324 18010KT P6SM SCT060
     FM030200 17007KT P6SM SCT060 BKN250
     FM031200 19005KT P6SM SCT250
     FM031600 22008KT P6SM BKN250=



000
FTUS43 KICT 021729
TAFICT
TAF
KICT 021729Z 0218/0318 20013G18KT P6SM FEW050
     FM030100 17007KT P6SM SCT250
     FM031200 20006KT P6SM BKN250=



000
FTUS43 KICT 021729
TAFRSL
TAF
KRSL 021729Z 0218/0318 23011G18KT P6SM FEW060 SCT250
     FM030100 17010KT P6SM FEW070 SCT250
     FM031000 22006KT P6SM SKC=



000
FTUS43 KICT 021729
TAFHUT
TAF
KHUT 021729Z 0218/0318 21014G19KT P6SM FEW060
     FM030100 18006KT P6SM SCT250
     FM031200 20005KT P6SM SCT250=



000
FTUS43 KICT 021729
TAFCNU
TAF
KCNU 021729Z 0218/0318 21010G16KT P6SM FEW050
     FM030100 19007KT P6SM SCT250
     FM031200 20011KT P6SM SCT250=



000
FTUS43 KICT 021729
TAFSLN
TAF
KSLN 021729Z 0218/0318 20010G18KT P6SM FEW060
     FM030100 17007KT P6SM FEW060 SCT250
     FM031200 16005KT P6SM SCT250=



000
FTUS43 KICT 021139
TAFSLN
TAF
KSLN 021139Z 0212/0312 20009KT P6SM SCT250
     FM021700 20012G17KT P6SM SCT060
     FM030000 17007KT P6SM FEW060 SCT250=



000
FTUS43 KICT 021139
TAFHUT
TAF
KHUT 021139Z 0212/0312 20009KT P6SM SCT250
     FM021700 21013G18KT P6SM SCT060
     FM030000 17007KT P6SM FEW050 SCT250=



000
FTUS43 KICT 021139
TAFRSL
TAF
KRSL 021139Z 0212/0312 20011KT P6SM FEW060 SCT250=



000
FTUS43 KICT 021139
TAFCNU
TAF
KCNU 021139Z 0212/0312 21009KT P6SM SCT250
     FM021700 21013G18KT P6SM SCT050
     FM030000 18007KT P6SM FEW050 SCT250=



000
FTUS43 KICT 021139
TAFICT
TAF
KICT 021139Z 0212/0312 20009KT P6SM SCT250
     FM021700 20013G18KT P6SM SCT050
     FM030000 17007KT P6SM FEW050 SCT250=



000
FTUS43 KICT 020927 AAA
TAFCNU
TAF AMD
KCNU 020927Z 0209/0306 19006KT P6SM BKN250
     FM021500 20013KT P6SM SCT060
     FM022200 19008KT P6SM BKN060
     FM030200 18007KT P6SM BKN250=



000
FTUS43 KICT 020520
TAFSLN
TAF
KSLN 020520Z 0206/0306 15008KT P6SM SCT060 BKN250
     FM021500 21012KT P6SM BKN250=



000
FTUS43 KICT 020520
TAFCNU
TAF
KCNU 020520Z 0206/0306 16005KT P6SM SCT060 BKN250
     FM021000 18005KT 3SM BR SKC
     FM021500 20013KT P6SM SCT060
     FM022200 19008KT P6SM BKN060
     FM030200 18007KT P6SM BKN250=



000
FTUS43 KICT 020520
TAFRSL
TAF
KRSL 020520Z 0206/0306 18008KT P6SM BKN200
     FM021500 20012KT P6SM BKN250=



000
FTUS43 KICT 020520
TAFCNU
TAF
KCNU 020520Z 0206/0306 16005KT P6SM SCT060 BKN250
     FM021000 18005KT 3SM BR SKC
     FM021500 20013KT P6SM SCT060
     FM022200 19008KT P6SM BKN060
     FM030200 18007KT P6SM BKN250=



000
FTUS43 KICT 020520
TAFSLN
TAF
KSLN 020520Z 0206/0306 15008KT P6SM SCT060 BKN250
     FM021500 21012KT P6SM BKN250=



000
FTUS43 KICT 020520
TAFHUT
TAF
KHUT 020520Z 0206/0306 16006KT P6SM BKN250
     FM021500 21012KT P6SM SCT250
     FM022200 22008KT P6SM SCT060
     FM030200 18007KT P6SM BKN250=



000
FTUS43 KICT 020520
TAFICT
TAF
KICT 020520Z 0206/0306 16007KT P6SM SCT060 BKN250
     FM021500 21011KT P6SM SCT250
     FM022200 22008KT P6SM SCT060
     FM030200 18007KT P6SM BKN250=



000
FTUS43 KICT 012320
TAFCNU
TAF
KCNU 012320Z 0200/0224 16005KT P6SM SCT040
     FM021000 18005KT 3SM BR SKC
     FM021500 20013KT P6SM SKC=



000
FTUS43 KICT 012320
TAFRSL
TAF
KRSL 012320Z 0200/0224 14008KT P6SM SCT060
     FM020500 18008KT P6SM SCT200=



000
FTUS43 KICT 012320
TAFICT
TAF
KICT 012320Z 0200/0224 19009KT P6SM SCT040
     FM020200 16007KT P6SM SKC
     FM021500 21011KT P6SM SKC=



000
FTUS43 KICT 012320
TAFSLN
TAF
KSLN 012320Z 0200/0224 15008KT P6SM SCT060
     FM021500 21012KT P6SM SKC=



000
FTUS43 KICT 012320
TAFHUT
TAF
KHUT 012320Z 0200/0224 17008KT P6SM SCT040
     FM020200 16006KT P6SM SKC
     FM021500 21012KT P6SM SKC=



000
FTUS43 KICT 012320
TAFICT
TAF
KICT 012320Z 0200/0224 19009KT P6SM SCT040
     FM020200 16007KT P6SM SKC
     FM021500 21011KT P6SM SKC=



000
FTUS43 KICT 012320
TAFCNU
TAF
KCNU 012320Z 0200/0224 16005KT P6SM SCT040
     FM021000 18005KT 3SM BR SKC
     FM021500 20013KT P6SM SKC=



000
FTUS43 KICT 012320
TAFHUT
TAF
KHUT 012320Z 0200/0224 17008KT P6SM SCT040
     FM020200 16006KT P6SM SKC
     FM021500 21012KT P6SM SKC=



000
FTUS43 KICT 012320
TAFSLN
TAF
KSLN 012320Z 0200/0224 15008KT P6SM SCT060
     FM021500 21012KT P6SM SKC=



000
FTUS43 KICT 012320
TAFRSL
TAF
KRSL 012320Z 0200/0224 14008KT P6SM SCT060
     FM020500 18008KT P6SM SCT200=



000
FTUS43 KICT 011720
TAFHUT
TAF
KHUT 011720Z 0118/0218 17008KT P6SM SCT040
     FM020100 16006KT P6SM SKC
     FM021500 21012KT P6SM SKC=



000
FTUS43 KICT 011720
TAFCNU
TAF
KCNU 011720Z 0118/0218 16005KT P6SM SCT040
     FM021000 18005KT 5SM BR SKC
     FM021500 20013KT P6SM SKC=



000
FTUS43 KICT 011720
TAFHUT
TAF
KHUT 011720Z 0118/0218 17008KT P6SM SCT040
     FM020100 16006KT P6SM SKC
     FM021500 21012KT P6SM SKC=



000
FTUS43 KICT 011720
TAFCNU
TAF
KCNU 011720Z 0118/0218 16005KT P6SM SCT040
     FM021000 18005KT 5SM BR SKC
     FM021500 20013KT P6SM SKC=



000
FTUS43 KICT 011720
TAFRSL
TAF
KRSL 011720Z 0118/0218 VRB06KT P6SM FEW050
     FM012000 14008KT P6SM SCT060
     FM020500 18008KT P6SM SCT200=



000
FTUS43 KICT 011720
TAFICT
TAF
KICT 011720Z 0118/0218 17009KT P6SM SCT040
     FM020100 16007KT P6SM SKC
     FM021500 21011KT P6SM SKC=



000
FTUS43 KICT 011720
TAFICT
TAF
KICT 011720Z 0118/0218 17009KT P6SM SCT040
     FM020100 16007KT P6SM SKC
     FM021500 21011KT P6SM SKC=



000
FTUS43 KICT 011720
TAFSLN
TAF
KSLN 011720Z 0118/0218 VRB06KT P6SM FEW050
     FM012000 15008KT P6SM SCT060
     FM021500 21012KT P6SM SKC=



000
FTUS43 KICT 011720
TAFCNU
TAF
KCNU 011720Z 0118/0218 16005KT P6SM SCT040
     FM021000 18005KT 3SM BR SKC
     FM021500 20013KT P6SM SKC=



000
FTUS43 KICT 011720
TAFRSL
TAF
KRSL 011720Z 0118/0218 VRB06KT P6SM FEW050
     FM012000 14008KT P6SM SCT060
     FM020500 18008KT P6SM SCT200=



000
FTUS43 KICT 011720
TAFCNU
TAF
KCNU 011720Z 0118/0218 16005KT P6SM SCT040
     FM021000 18005KT 3SM BR SKC
     FM021500 20013KT P6SM SKC=



000
FTUS43 KICT 011720
TAFSLN
TAF
KSLN 011720Z 0118/0218 VRB06KT P6SM FEW050
     FM012000 15008KT P6SM SCT060
     FM021500 21012KT P6SM SKC=



000
FTUS43 KICT 011135
TAFHUT
TAF
KHUT 011135Z 0112/0212 17003KT 4SM BR SKC
      TEMPO 0112/0113 2SM BR
     FM011400 20005KT P6SM SKC
     FM011800 18011KT P6SM SCT040=



000
FTUS43 KICT 011135
TAFSLN
TAF
KSLN 011135Z 0112/0212 21005KT P6SM SKC
      TEMPO 0112/0113 4SM BR
     FM011800 18011KT P6SM SCT050=



000
FTUS43 KICT 011135
TAFRSL
TAF
KRSL 011135Z 0112/0212 22008KT P6SM SKC
      TEMPO 0112/0113 4SM BR
     FM011800 18013KT P6SM SCT050=



000
FTUS43 KICT 011135
TAFICT
TAF
KICT 011135Z 0112/0212 18004KT P6SM SKC
      TEMPO 0112/0113 4SM BR
     FM011800 18011KT P6SM SCT040=



000
FTUS43 KICT 011135
TAFCNU
TAF
KCNU 011135Z 0112/0212 VRB03KT 4SM BR SKC
      TEMPO 0112/0113 2SM BR SCT003
     FM011400 21004KT P6SM SKC
     FM011800 18007KT P6SM SCT040=



000
FTUS43 KICT 011037 AAB
TAFICT
TAF AMD
KICT 011037Z 0111/0206 16004KT P6SM SKC
      TEMPO 0111/0113 4SM BR
     FM011500 18011KT P6SM SCT045 SCT250
     FM020300 16008KT P6SM SCT050 SCT200=



000
FTUS43 KICT 011037 AAB
TAFICT
TAF AMD
KICT 011037Z 0111/0206 16004KT P6SM SKC
      TEMPO 0111/0113 4SM BR
     FM011500 18011KT P6SM SCT045 SCT250
     FM020300 16008KT P6SM SCT050 SCT200=



000
FTUS43 KICT 011036 AAA
TAFHUT
TAF AMD
KHUT 011036Z 0111/0206 VRB03KT 6SM BR SKC
      TEMPO 0111/0113 3SM BR
     FM011400 18011KT P6SM FEW045 SCT250
     FM020300 18006KT P6SM SCT250=



000
FTUS43 KICT 011034 AAA
TAFCNU
TAF AMD
KCNU 011034Z 0111/0206 VRB03KT 4SM BR SKC
      TEMPO 0111/0113 1SM BR SCT003
     FM011400 VRB03KT P6SM SKC
     FM011900 18010KT P6SM FEW040 SCT250
     FM020300 16005KT P6SM FEW250=



000
FTUS43 KICT 011034 AAA
TAFCNU
TAF AMD
KCNU 011034Z 0111/0206 VRB03KT 4SM BR SKC
      TEMPO 0111/0113 1SM BR SCT003
     FM011400 VRB03KT P6SM SKC
     FM011900 18010KT P6SM FEW040 SCT250
     FM020300 16005KT P6SM FEW250=



    US Dept of Commerce
    National Oceanic and Atmospheric Administration
    National Weather Service
    1325 East West Highway
    Silver Spring, MD 20910
    Page Author: NWS Internet Services Team
Disclaimer
Information Quality
Credits
Glossary
Privacy Policy
Freedom of Information Act (FOIA)
About Us
Career Opportunities